Time;durP1;ratioP1;P1;durP2;ratioP2;P2;SDS_P1;SDS_P2;PMS_P1;PMS_P2;Temp;Humidity;BMP_temperature;BMP_pressure;BME280_temperature;BME280_humidity;BME280_pressure;Samples;Min_cycle;Max_cycle;Signal;HPM_P1;HPM_P2
2022/06/12 00:00:28;;;;;;;8.07;4.20;;;22.30;83.90;;;;;;5078356;28;20501;-84
2022/06/12 00:03:01;;;;;;;6.90;3.93;;;22.10;84.30;;;;;;5077301;28;20467;-83
2022/06/12 00:05:30;;;;;;;7.00;3.20;;;22.10;84.90;;;;;;5074731;28;20455;-82
2022/06/12 00:08:19;;;;;;;5.60;3.37;;;22.00;85.30;;;;;;5075279;28;20523;-87
2022/06/12 00:10:51;;;;;;;10.60;4.43;;;22.10;85.50;;;;;;5086250;28;20467;-84
2022/06/12 00:13:34;;;;;;;4.70;3.57;;;22.00;85.40;;;;;;5076335;28;20508;-84
2022/06/12 00:16:03;;;;;;;7.83;3.70;;;22.00;85.40;;;;;;5074012;28;20451;-84
2022/06/12 00:18:29;;;;;;;9.17;4.57;;;22.00;85.80;;;;;;5077641;28;20448;-86
2022/06/12 00:21:11;;;;;;;6.90;4.20;;;21.90;85.90;;;;;;5075259;28;20494;-85
2022/06/12 00:23:44;;;;;;;6.10;3.80;;;21.90;86.40;;;;;;5075660;28;20455;-85
2022/06/12 00:26:13;;;;;;;8.60;3.87;;;21.90;86.60;;;;;;5075365;28;20447;-85
2022/06/12 00:29:08;;;;;;;6.57;3.93;;;21.80;86.90;;;;;;5074105;28;20462;-86
2022/06/12 00:31:41;;;;;;;8.10;3.83;;;21.70;87.30;;;;;;5071485;28;20483;-84
2022/06/12 00:34:10;;;;;;;8.00;4.20;;;21.60;87.60;;;;;;5071508;28;20451;-86
2022/06/12 00:36:37;;;;;;;7.53;4.03;;;21.60;88.10;;;;;;5073753;28;20443;-85
2022/06/12 00:39:09;;;;;;;5.33;4.20;;;21.50;88.20;;;;;;5068746;28;20959;-84
2022/06/12 00:41:38;;;;;;;8.07;4.67;;;21.50;88.50;;;;;;5076213;28;20868;-84
2022/06/12 00:44:12;;;;;;;10.37;4.67;;;21.60;88.70;;;;;;5074835;28;20993;-85
2022/06/12 00:46:46;;;;;;;8.80;5.20;;;21.50;88.70;;;;;;5078870;28;20447;-82
2022/06/12 00:49:21;;;;;;;8.20;5.00;;;21.30;88.70;;;;;;5072027;28;20456;-84
2022/06/12 00:51:51;;;;;;;9.10;4.13;;;21.40;88.90;;;;;;5073373;28;20490;-84
2022/06/12 00:54:19;;;;;;;10.07;4.60;;;21.30;88.50;;;;;;5074040;28;20475;-84
2022/06/12 00:56:49;;;;;;;6.13;4.00;;;21.30;88.40;;;;;;5074522;28;20474;-86
2022/06/12 00:59:26;;;;;;;9.67;4.50;;;21.30;88.60;;;;;;5078938;28;20451;-86
2022/06/12 01:01:53;;;;;;;11.13;3.73;;;21.20;89.20;;;;;;5077273;28;20904;-83
2022/06/12 01:07:10;;;;;;;9.40;5.20;;;21.20;89.60;;;;;;5076665;28;20451;-86
2022/06/12 01:09:42;;;;;;;8.50;4.57;;;21.20;89.50;;;;;;5072399;28;20716;-85
2022/06/12 01:12:19;;;;;;;7.87;5.00;;;21.20;89.90;;;;;;5072641;28;20491;-84
2022/06/12 01:14:54;;;;;;;6.90;4.50;;;21.10;89.90;;;;;;5076734;28;20458;-83
2022/06/12 01:17:23;;;;;;;9.33;5.10;;;21.10;90.10;;;;;;5076637;28;20474;-84
2022/06/12 01:19:54;;;;;;;6.77;5.10;;;21.10;90.20;;;;;;5078477;28;20566;-84
2022/06/12 01:22:48;;;;;;;10.67;4.60;;;21.10;90.40;;;;;;5079073;28;20451;-84
2022/06/12 01:25:49;;;;;;;8.00;4.70;;;21.10;90.40;;;;;;5073510;28;20468;-85
2022/06/12 01:28:47;;;;;;;10.53;5.17;;;21.00;90.50;;;;;;5076615;28;20463;-86
2022/06/12 01:31:38;;;;;;;13.80;5.23;;;20.90;90.70;;;;;;5077505;28;20490;-85
2022/06/12 01:34:16;;;;;;;7.03;4.33;;;20.90;90.90;;;;;;5074800;28;20459;-84
2022/06/12 01:37:17;;;;;;;11.70;5.73;;;20.80;91.00;;;;;;5074943;28;20462;-86
2022/06/12 01:40:24;;;;;;;9.13;4.97;;;20.80;91.10;;;;;;5073690;28;20471;-82
2022/06/12 01:43:25;;;;;;;8.90;5.17;;;20.70;91.20;;;;;;5078145;28;20443;-85
2022/06/12 01:46:06;;;;;;;8.03;4.50;;;20.60;91.20;;;;;;5078678;28;20509;-84
2022/06/12 01:49:05;;;;;;;13.27;5.00;;;20.50;91.40;;;;;;5076386;28;20574;-84
2022/06/12 01:51:48;;;;;;;7.07;4.70;;;20.50;91.50;;;;;;5065358;28;21089;-82
2022/06/12 01:54:29;;;;;;;8.00;4.73;;;20.50;91.70;;;;;;5074808;28;20459;-82
2022/06/12 01:57:14;;;;;;;7.53;4.67;;;20.60;91.70;;;;;;5075036;28;20462;-85
2022/06/12 01:59:55;;;;;;;8.23;4.60;;;20.50;91.70;;;;;;5070656;28;20462;-82
2022/06/12 02:02:43;;;;;;;7.50;4.60;;;20.60;91.80;;;;;;5078564;28;20479;-84
2022/06/12 02:05:49;;;;;;;9.17;4.57;;;20.50;91.70;;;;;;5086945;28;20447;-86
2022/06/12 02:08:40;;;;;;;8.27;4.37;;;20.60;91.70;;;;;;5075731;28;20474;-84
2022/06/12 02:14:14;;;;;;;7.33;5.10;;;20.60;91.70;;;;;;5076097;28;20554;-86
2022/06/12 02:16:47;;;;;;;8.43;4.33;;;20.50;91.70;;;;;;5070688;28;20451;-86
2022/06/12 02:19:29;;;;;;;8.20;5.17;;;20.40;91.60;;;;;;5074911;28;20451;-84
2022/06/12 02:22:05;;;;;;;7.00;3.97;;;20.40;91.90;;;;;;5076579;28;20485;-85
2022/06/12 02:24:46;;;;;;;9.07;4.87;;;20.40;92.00;;;;;;5077444;28;20454;-84
2022/06/12 02:27:18;;;;;;;10.77;4.13;;;20.40;92.10;;;;;;5080470;28;20455;-84
2022/06/12 02:29:55;;;;;;;9.27;4.90;;;20.40;92.10;;;;;;5077565;28;20456;-84
2022/06/12 02:32:33;;;;;;;7.03;4.80;;;20.40;92.00;;;;;;5070593;28;20447;-85
2022/06/12 02:35:23;;;;;;;6.60;4.70;;;20.40;92.10;;;;;;5077187;28;20905;-84
2022/06/12 02:37:54;;;;;;;10.10;4.40;;;20.40;92.20;;;;;;5068560;28;20977;-84
2022/06/12 02:40:33;;;;;;;9.07;4.50;;;20.40;92.30;;;;;;5075592;28;20487;-85
2022/06/12 02:43:05;;;;;;;9.33;4.67;;;20.30;92.40;;;;;;5089950;28;20511;-84
2022/06/12 02:45:44;;;;;;;8.83;4.80;;;20.20;92.60;;;;;;5076195;28;20448;-85
2022/06/12 02:48:11;;;;;;;8.90;5.10;;;20.20;92.60;;;;;;5071961;28;20960;-85
2022/06/12 02:51:00;;;;;;;9.93;4.93;;;20.20;92.80;;;;;;5070444;28;20478;-84
2022/06/12 02:53:49;;;;;;;9.43;5.07;;;20.10;92.80;;;;;;5076104;28;20464;-89
2022/06/12 02:56:41;;;;;;;7.33;4.50;;;20.10;92.90;;;;;;5073994;28;20455;-85
2022/06/12 02:59:34;;;;;;;5.97;4.60;;;20.10;92.90;;;;;;5074610;28;20447;-85
2022/06/12 03:02:04;;;;;;;9.40;6.03;;;20.10;92.90;;;;;;5068082;28;20475;-85
2022/06/12 03:04:46;;;;;;;10.10;5.80;;;20.20;93.10;;;;;;5068268;28;20456;-86
2022/06/12 03:07:14;;;;;;;7.13;5.23;;;20.10;93.30;;;;;;5070429;28;20969;-85
2022/06/12 03:09:41;;;;;;;11.10;5.70;;;20.10;93.70;;;;;;5067614;28;20449;-86
2022/06/12 03:12:08;;;;;;;8.30;5.80;;;20.00;93.90;;;;;;5070627;28;20479;-86
2022/06/12 03:14:35;;;;;;;10.77;5.27;;;20.00;94.10;;;;;;5074849;28;20455;-85
2022/06/12 03:17:02;;;;;;;8.60;6.67;;;20.00;94.20;;;;;;5091270;28;20481;-87
2022/06/12 03:19:42;;;;;;;12.20;5.67;;;19.90;94.30;;;;;;5076801;28;20507;-87
2022/06/12 03:22:40;;;;;;;12.60;6.07;;;19.90;94.60;;;;;;5068413;28;20514;-87
2022/06/12 03:25:18;;;;;;;8.10;5.57;;;19.80;94.90;;;;;;5060579;28;20467;-87
2022/06/12 03:27:50;;;;;;;9.90;5.50;;;19.70;95.10;;;;;;5076564;28;20516;-87
2022/06/12 03:30:45;;;;;;;12.03;6.43;;;19.80;95.20;;;;;;5075653;28;20475;-88
2022/06/12 03:33:21;;;;;;;13.20;5.77;;;19.80;95.20;;;;;;5085926;28;20446;-86
2022/06/12 03:36:00;;;;;;;13.30;5.47;;;19.80;95.50;;;;;;5090849;28;20518;-85
2022/06/12 03:38:32;;;;;;;12.50;5.63;;;19.80;95.10;;;;;;5080229;28;20871;-83
2022/06/12 03:40:59;;;;;;;10.80;5.87;;;19.70;95.10;;;;;;5070795;28;20483;-84
2022/06/12 03:43:30;;;;;;;9.17;5.40;;;19.60;95.30;;;;;;5080472;28;20443;-82
2022/06/12 03:46:18;;;;;;;17.03;5.83;;;19.70;95.40;;;;;;5078801;28;20490;-84
2022/06/12 03:48:56;;;;;;;8.20;5.43;;;19.60;95.20;;;;;;5071795;28;20519;-82
2022/06/12 03:51:25;;;;;;;8.80;5.30;;;19.60;95.30;;;;;;5087544;28;20478;-87
2022/06/12 03:54:04;;;;;;;12.03;5.97;;;19.50;95.40;;;;;;5089693;28;20458;-84
2022/06/12 03:59:49;;;;;;;10.73;5.17;;;19.60;95.50;;;;;;5076236;28;20459;-84
2022/06/12 04:02:20;;;;;;;6.53;4.97;;;19.50;95.40;;;;;;5076925;28;20490;-87
2022/06/12 04:04:49;;;;;;;11.73;5.50;;;19.50;95.60;;;;;;5077555;28;20455;-85
2022/06/12 04:07:18;;;;;;;7.50;5.53;;;19.50;95.60;;;;;;5075505;28;20979;-84
2022/06/12 04:09:49;;;;;;;10.40;5.67;;;19.50;95.50;;;;;;5088914;28;20448;-88
2022/06/12 04:12:28;;;;;;;10.40;5.13;;;19.50;95.50;;;;;;5094046;28;20455;-86
2022/06/12 04:15:08;;;;;;;7.70;4.73;;;19.50;95.40;;;;;;5089093;28;20457;-87
2022/06/12 04:17:35;;;;;;;9.17;5.77;;;19.40;95.30;;;;;;5075387;28;20478;-84
2022/06/12 04:20:06;;;;;;;9.70;5.13;;;19.40;95.30;;;;;;5076442;28;20448;-84
2022/06/12 04:22:45;;;;;;;10.40;6.07;;;19.30;95.40;;;;;;5069308;28;20450;-87
2022/06/12 04:25:37;;;;;;;13.33;6.47;;;19.30;95.40;;;;;;5075906;28;20481;-86
2022/06/12 04:28:30;;;;;;;8.43;4.30;;;19.30;95.30;;;;;;5074864;28;20945;-86
2022/06/12 04:30:58;;;;;;;11.40;5.00;;;19.30;95.20;;;;;;5074868;28;20483;-85
2022/06/12 04:33:42;;;;;;;11.70;4.47;;;19.30;95.30;;;;;;5076560;28;20519;-85
2022/06/12 04:36:11;;;;;;;9.13;4.80;;;19.30;95.20;;;;;;5066281;28;20487;-86
2022/06/12 04:38:39;;;;;;;5.97;3.93;;;19.30;95.20;;;;;;5066746;28;20815;-86
2022/06/12 04:41:06;;;;;;;8.90;4.43;;;19.30;95.20;;;;;;5070537;28;20484;-84
2022/06/12 04:43:33;;;;;;;8.53;3.93;;;19.20;95.10;;;;;;5072382;28;20509;-87
2022/06/12 04:46:02;;;;;;;10.10;4.10;;;19.20;95.20;;;;;;5074541;28;20893;-86
2022/06/12 04:48:42;;;;;;;11.00;4.57;;;19.30;95.20;;;;;;5075230;28;20448;-83
2022/06/12 04:51:11;;;;;;;10.80;4.43;;;19.30;95.10;;;;;;5068274;28;20874;-84
2022/06/12 04:53:39;;;;;;;9.10;4.70;;;19.30;95.10;;;;;;5070680;28;20468;-84
2022/06/12 04:56:06;;;;;;;10.90;4.30;;;19.30;95.20;;;;;;5072919;28;20479;-84
2022/06/12 04:58:33;;;;;;;10.27;5.27;;;19.40;95.20;;;;;;5070579;28;20452;-86
2022/06/12 05:01:00;;;;;;;6.10;3.87;;;19.50;95.10;;;;;;5075144;28;20475;-84
2022/06/12 05:03:27;;;;;;;8.60;4.27;;;19.50;95.00;;;;;;5072102;28;20451;-84
2022/06/12 05:05:54;;;;;;;8.27;4.30;;;19.60;95.00;;;;;;5069746;28;20562;-88
2022/06/12 05:08:22;;;;;;;7.60;5.50;;;19.60;94.80;;;;;;5072975;28;20443;-86
2022/06/12 05:10:49;;;;;;;8.57;4.60;;;19.60;94.60;;;;;;5072660;28;20555;-84
2022/06/12 05:13:16;;;;;;;8.87;4.43;;;19.60;94.80;;;;;;5069474;28;21032;-84
2022/06/12 05:15:44;;;;;;;11.60;6.90;;;19.60;94.60;;;;;;5073944;28;21030;-87
2022/06/12 05:18:13;;;;;;;6.57;4.37;;;19.70;94.50;;;;;;5081121;28;20454;-85
2022/06/12 05:20:42;;;;;;;9.47;4.00;;;19.70;94.40;;;;;;5077169;28;20487;-82
2022/06/12 05:23:12;;;;;;;10.57;5.07;;;19.70;94.30;;;;;;5074992;28;20455;-85
2022/06/12 05:25:43;;;;;;;8.20;4.40;;;19.80;94.20;;;;;;5080721;28;20516;-83
2022/06/12 05:28:14;;;;;;;8.03;4.30;;;19.80;94.10;;;;;;5076071;28;20462;-83
2022/06/12 05:30:43;;;;;;;6.70;4.37;;;19.80;93.90;;;;;;5071730;28;20886;-86
2022/06/12 05:33:11;;;;;;;7.50;4.13;;;19.90;93.80;;;;;;5075350;28;20468;-84
2022/06/12 05:35:41;;;;;;;6.87;3.97;;;19.90;93.30;;;;;;5088436;28;20459;-85
2022/06/12 05:38:10;;;;;;;9.80;3.90;;;20.00;93.20;;;;;;5082068;28;20986;-83
2022/06/12 05:40:39;;;;;;;6.30;3.70;;;19.90;93.00;;;;;;5080094;28;20482;-85
2022/06/12 05:43:08;;;;;;;9.17;4.00;;;20.00;93.00;;;;;;5080565;28;20478;-85
2022/06/12 05:45:35;;;;;;;6.30;3.63;;;19.90;92.50;;;;;;5076568;28;20463;-86
2022/06/12 05:48:08;;;;;;;6.90;4.20;;;19.90;92.30;;;;;;5080925;28;20447;-84
2022/06/12 05:50:44;;;;;;;7.43;4.33;;;19.90;92.10;;;;;;5078239;28;20479;-82
2022/06/12 05:53:12;;;;;;;9.50;3.57;;;20.00;92.00;;;;;;5078161;28;20462;-84
2022/06/12 05:55:38;;;;;;;5.97;3.60;;;20.00;91.90;;;;;;5081934;28;20956;-83
2022/06/12 05:58:05;;;;;;;7.60;3.30;;;20.00;91.80;;;;;;5079793;28;20449;-90
2022/06/12 06:00:33;;;;;;;6.40;3.50;;;20.10;91.90;;;;;;5103447;22;20500;-85
2022/06/12 06:03:00;;;;;;;7.67;3.93;;;20.10;91.60;;;;;;5053322;28;20456;-86
2022/06/12 06:05:27;;;;;;;10.10;3.83;;;20.10;91.70;;;;;;5055459;28;20466;-85
2022/06/12 06:07:54;;;;;;;5.23;3.13;;;20.10;91.80;;;;;;5056050;28;20449;-83
2022/06/12 06:10:24;;;;;;;9.80;4.17;;;20.10;91.90;;;;;;5034245;28;20556;-84
2022/06/12 06:12:52;;;;;;;9.33;3.70;;;20.10;92.20;;;;;;5060916;28;20444;-83
2022/06/12 06:15:20;;;;;;;8.40;4.20;;;20.20;92.50;;;;;;5061492;28;20457;-86
2022/06/12 06:17:47;;;;;;;8.53;3.90;;;20.30;92.40;;;;;;5060930;28;20528;-85
2022/06/12 06:20:18;;;;;;;5.27;3.30;;;20.30;92.50;;;;;;5055976;28;20452;-83
2022/06/12 06:22:45;;;;;;;10.40;3.90;;;20.30;92.60;;;;;;5061646;28;20486;-86
2022/06/12 06:25:12;;;;;;;8.87;4.37;;;20.30;92.60;;;;;;5060429;28;20453;-85
2022/06/12 06:27:39;;;;;;;8.47;3.90;;;20.40;92.60;;;;;;5041423;28;20834;-86
2022/06/12 06:30:06;;;;;;;9.50;3.90;;;20.40;92.40;;;;;;5062025;28;20441;-86
2022/06/12 06:32:34;;;;;;;5.87;3.10;;;20.50;91.80;;;;;;5061797;28;20445;-85
2022/06/12 06:35:04;;;;;;;6.90;3.40;;;20.60;91.60;;;;;;5061268;28;20457;-85
2022/06/12 06:37:36;;;;;;;6.07;3.30;;;20.60;91.20;;;;;;5061097;28;20448;-84
2022/06/12 06:40:08;;;;;;;7.10;4.30;;;20.70;90.80;;;;;;5062037;28;20487;-85
2022/06/12 06:42:35;;;;;;;12.80;4.00;;;20.70;90.70;;;;;;5055555;28;20976;-85
2022/06/12 06:47:48;;;;;;;7.40;3.80;;;20.70;91.30;;;;;;5061293;28;21108;-87
2022/06/12 06:50:18;;;;;;;7.90;3.80;;;20.70;92.10;;;;;;5063043;28;20452;-85
2022/06/12 06:52:46;;;;;;;14.57;4.20;;;20.70;92.50;;;;;;5062992;28;20512;-87
2022/06/12 06:55:13;;;;;;;8.07;4.60;;;20.80;92.60;;;;;;5063339;28;20829;-87
2022/06/12 06:57:43;;;;;;;6.33;3.90;;;20.90;92.70;;;;;;5059731;28;20457;-87
2022/06/12 07:00:17;;;;;;;5.80;3.30;;;21.00;92.70;;;;;;5061382;28;20512;-88
2022/06/12 07:02:44;;;;;;;8.90;4.50;;;21.00;92.40;;;;;;5066124;28;20476;-84
2022/06/12 07:05:11;;;;;;;10.53;4.27;;;21.00;92.20;;;;;;5063682;28;21123;-85
2022/06/12 07:07:38;;;;;;;10.20;4.00;;;21.00;92.10;;;;;;5059936;28;20445;-85
2022/06/12 07:10:08;;;;;;;12.73;3.70;;;21.10;92.10;;;;;;5059283;28;20462;-86
2022/06/12 07:12:35;;;;;;;8.57;3.57;;;21.20;91.50;;;;;;5062627;28;20460;-85
2022/06/12 07:15:03;;;;;;;9.10;3.20;;;21.20;90.10;;;;;;5063221;28;20452;-86
2022/06/12 07:17:30;;;;;;;8.87;3.50;;;21.20;88.50;;;;;;5055795;28;20876;-86
2022/06/12 07:19:57;;;;;;;5.37;3.07;;;21.20;88.00;;;;;;5044484;28;20452;-83
2022/06/12 07:22:25;;;;;;;7.50;2.67;;;21.30;87.00;;;;;;5059964;28;20504;-84
2022/06/12 07:24:52;;;;;;;6.07;2.50;;;21.30;84.90;;;;;;5061572;28;20441;-85
2022/06/12 07:27:18;;;;;;;4.63;2.50;;;21.40;84.20;;;;;;5057140;28;20513;-84
2022/06/12 07:29:46;;;;;;;3.83;2.53;;;21.50;83.60;;;;;;5062532;28;20452;-86
2022/06/12 07:32:13;;;;;;;5.40;2.30;;;21.30;82.80;;;;;;5058959;28;20476;-86
2022/06/12 07:34:42;;;;;;;7.77;2.43;;;21.40;81.90;;;;;;5059952;28;20938;-85
2022/06/12 07:37:09;;;;;;;7.20;2.50;;;21.50;81.20;;;;;;5055513;28;20547;-84
2022/06/12 07:39:47;;;;;;;6.17;2.43;;;21.50;79.80;;;;;;5042117;28;20453;-85
2022/06/12 07:42:14;;;;;;;4.60;1.87;;;21.80;78.60;;;;;;5059164;28;20479;-84
2022/06/12 07:44:41;;;;;;;5.10;1.73;;;22.00;74.90;;;;;;5059658;28;20455;-87
2022/06/12 07:47:08;;;;;;;3.23;1.80;;;21.60;73.10;;;;;;5064646;28;20432;-83
2022/06/12 07:49:37;;;;;;;1.57;1.20;;;21.60;65.40;;;;;;5074089;28;20464;-88
2022/06/12 07:52:07;;;;;;;3.33;1.70;;;21.50;62.50;;;;;;5075115;28;20464;-89
2022/06/12 07:54:36;;;;;;;3.90;1.83;;;21.60;62.00;;;;;;5050883;28;20448;-86
2022/06/12 07:57:04;;;;;;;3.43;1.50;;;21.50;61.50;;;;;;5073285;28;20495;-86
2022/06/12 07:59:34;;;;;;;7.17;1.33;;;21.50;63.50;;;;;;5060523;28;20460;-84
2022/06/12 08:02:10;;;;;;;3.10;1.40;;;21.70;66.80;;;;;;5056615;28;20478;-85
2022/06/12 08:04:37;;;;;;;1.70;1.50;;;21.70;67.70;;;;;;5049997;28;20539;-87
2022/06/12 08:07:04;;;;;;;5.77;1.63;;;21.70;69.00;;;;;;5058611;28;20540;-85
2022/06/12 08:09:31;;;;;;;4.73;2.30;;;21.80;69.20;;;;;;5060473;28;20539;-86
2022/06/12 08:11:58;;;;;;;6.73;3.97;;;22.00;68.20;;;;;;5060796;28;20837;-83
2022/06/12 08:14:27;;;;;;;3.90;2.23;;;22.00;67.70;;;;;;5061225;28;20448;-86
2022/06/12 08:16:57;;;;;;;5.70;2.50;;;22.10;67.90;;;;;;5040323;28;20469;-85
2022/06/12 08:22:13;;;;;;;2.90;1.40;;;22.00;68.00;;;;;;5060418;28;20499;-86
2022/06/12 08:24:43;;;;;;;3.43;1.80;;;22.10;68.20;;;;;;5063765;28;20965;-84
2022/06/12 08:27:10;;;;;;;4.37;1.90;;;22.10;68.30;;;;;;5063477;28;20453;-84
2022/06/12 08:29:40;;;;;;;4.10;1.53;;;22.20;68.00;;;;;;5063380;28;20494;-85
2022/06/12 08:32:19;;;;;;;4.77;1.97;;;22.40;67.00;;;;;;5061877;28;20518;-86
2022/06/12 08:34:58;;;;;;;3.77;1.60;;;22.50;66.60;;;;;;5052525;28;20468;-85
2022/06/12 08:37:35;;;;;;;1.83;1.47;;;22.50;66.80;;;;;;5069057;28;20523;-87
2022/06/12 08:40:08;;;;;;;4.27;1.73;;;22.60;66.50;;;;;;5077485;28;20452;-90
2022/06/12 08:42:54;;;;;;;3.77;1.60;;;22.80;67.00;;;;;;5077198;28;20487;-90
2022/06/12 08:45:26;;;;;;;2.00;1.27;;;22.90;65.90;;;;;;5076947;28;20441;-87
2022/06/12 08:48:03;;;;;;;5.67;1.63;;;23.10;65.70;;;;;;5077138;28;20563;-89
2022/06/12 08:50:50;;;;;;;3.90;1.60;;;23.30;64.30;;;;;;5076555;28;20498;-90
2022/06/12 08:53:22;;;;;;;2.97;1.57;;;23.10;64.50;;;;;;5073425;28;20436;-91
2022/06/12 08:55:55;;;;;;;2.00;1.40;;;23.40;65.50;;;;;;5060457;28;20904;-85
2022/06/12 08:58:28;;;;;;;5.97;1.80;;;23.80;64.00;;;;;;5057393;28;20953;-87
2022/06/12 09:00:55;;;;;;;2.90;1.60;;;24.50;62.00;;;;;;5066456;28;20479;-85
2022/06/12 09:03:25;;;;;;;3.23;1.40;;;24.80;61.60;;;;;;5064948;28;20469;-88
2022/06/12 09:06:14;;;;;;;2.73;1.40;;;25.10;60.70;;;;;;5068677;28;20444;-86
2022/06/12 09:08:57;;;;;;;4.30;1.50;;;25.10;58.40;;;;;;5075805;28;20448;-90
2022/06/12 09:11:39;;;;;;;3.00;1.30;;;24.80;57.00;;;;;;5081335;28;20467;-85
2022/06/12 09:14:38;;;;;;;1.80;1.33;;;24.80;57.00;;;;;;5060299;28;20445;-85
2022/06/12 09:17:25;;;;;;;2.20;1.70;;;24.90;56.40;;;;;;5048976;28;20459;-84
2022/06/12 09:20:13;;;;;;;3.57;1.23;;;25.00;56.90;;;;;;5060043;28;20544;-85
2022/06/12 09:22:48;;;;;;;1.27;1.00;;;25.10;56.00;;;;;;5054972;28;20492;-85
2022/06/12 09:25:22;;;;;;;2.17;1.20;;;25.20;54.10;;;;;;5054215;28;20447;-83
2022/06/12 09:27:58;;;;;;;3.03;1.53;;;25.40;53.30;;;;;;5065803;28;20760;-85
2022/06/12 09:30:39;;;;;;;3.00;1.07;;;25.70;53.60;;;;;;5065565;28;20472;-84
2022/06/12 09:33:12;;;;;;;2.50;1.10;;;26.10;53.20;;;;;;5061023;28;20479;-86
2022/06/12 09:35:55;;;;;;;2.97;1.50;;;26.50;52.20;;;;;;5062594;28;20433;-85
2022/06/12 09:38:43;;;;;;;2.10;1.00;;;27.00;50.50;;;;;;5062381;28;20501;-85
2022/06/12 09:41:22;;;;;;;2.23;0.90;;;27.30;48.20;;;;;;5045541;28;20468;-85
2022/06/12 09:44:28;;;;;;;1.63;1.30;;;28.10;46.50;;;;;;5061907;28;20429;-85
2022/06/12 09:47:04;;;;;;;2.10;1.90;;;27.90;43.40;;;;;;5016489;28;20924;-86
2022/06/12 09:50:05;;;;;;;1.73;1.00;;;27.90;42.50;;;;;;5058046;28;20448;-87
2022/06/12 09:52:50;;;;;;;2.47;0.87;;;28.20;38.30;;;;;;5065478;28;20452;-86
2022/06/12 09:55:52;;;;;;;1.00;0.90;;;28.70;37.70;;;;;;5063010;28;20598;-85
2022/06/12 09:58:25;;;;;;;1.90;0.77;;;30.50;37.00;;;;;;5052222;28;20455;-86
2022/06/12 10:01:04;;;;;;;2.70;1.20;;;30.30;36.60;;;;;;5061543;28;20511;-87
2022/06/12 10:03:43;;;;;;;1.40;1.17;;;30.00;36.90;;;;;;5061868;28;20540;-87
2022/06/12 10:06:24;;;;;;;2.27;1.00;;;30.40;37.50;;;;;;5057226;28;20448;-87
2022/06/12 10:09:06;;;;;;;1.30;0.80;;;32.40;34.90;;;;;;5057353;28;20461;-85
2022/06/12 10:11:45;;;;;;;2.37;0.90;;;30.90;35.40;;;;;;5059288;28;20481;-85
2022/06/12 10:14:18;;;;;;;4.27;1.10;;;30.30;36.10;;;;;;5059038;28;21055;-87
2022/06/12 10:16:56;;;;;;;1.20;0.90;;;30.20;36.60;;;;;;5057602;28;20452;-87
2022/06/12 10:19:40;;;;;;;2.17;0.90;;;30.00;35.70;;;;;;5058934;28;20502;-85
2022/06/12 10:22:15;;;;;;;2.23;1.10;;;29.80;36.40;;;;;;5057284;28;20472;-86
2022/06/12 10:24:42;;;;;;;3.93;1.03;;;31.20;34.10;;;;;;5063635;28;20475;-86
2022/06/12 10:27:12;;;;;;;1.43;0.67;;;31.00;34.50;;;;;;5059041;28;20491;-86
2022/06/12 10:29:53;;;;;;;1.20;0.90;;;30.90;34.50;;;;;;5061048;28;20440;-86
2022/06/12 10:32:23;;;;;;;1.97;0.90;;;31.20;33.40;;;;;;5062573;28;20569;-86
2022/06/12 10:34:51;;;;;;;2.10;0.97;;;30.70;34.30;;;;;;5057702;28;20477;-84
2022/06/12 10:37:19;;;;;;;2.20;1.20;;;30.50;35.00;;;;;;5051286;28;20452;-85
2022/06/12 10:40:00;;;;;;;4.23;1.40;;;30.20;35.40;;;;;;5050389;28;20485;-84
2022/06/12 10:42:33;;;;;;;2.43;1.37;;;29.90;35.40;;;;;;5062852;28;20882;-85
2022/06/12 10:45:05;;;;;;;1.30;0.87;;;29.50;36.20;;;;;;5063602;28;20448;-85
2022/06/12 10:47:41;;;;;;;2.67;1.07;;;29.40;36.60;;;;;;5056623;28;20432;-86
2022/06/12 10:50:14;;;;;;;2.60;1.10;;;29.60;36.60;;;;;;5063202;28;20466;-85
2022/06/12 10:53:02;;;;;;;2.30;1.30;;;29.60;36.70;;;;;;5060181;28;20484;-86
2022/06/12 10:55:45;;;;;;;2.87;1.40;;;29.40;37.00;;;;;;5057050;28;20448;-84
2022/06/12 10:58:34;;;;;;;2.20;1.20;;;29.40;36.30;;;;;;5047417;28;20445;-85
2022/06/12 11:01:12;;;;;;;2.70;1.00;;;29.70;36.40;;;;;;5060506;28;20472;-85
2022/06/12 11:03:52;;;;;;;4.97;1.37;;;29.40;36.60;;;;;;5066661;28;20478;-85
2022/06/12 11:06:32;;;;;;;3.53;2.20;;;29.10;36.90;;;;;;5046663;28;20457;-82
2022/06/12 11:09:14;;;;;;;2.43;1.67;;;29.50;36.60;;;;;;5056896;28;20992;-84
2022/06/12 11:11:57;;;;;;;2.97;1.40;;;29.70;37.40;;;;;;5056694;28;20492;-85
2022/06/12 11:14:42;;;;;;;3.40;1.53;;;30.00;37.10;;;;;;5056644;28;20440;-82
2022/06/12 11:17:36;;;;;;;3.30;1.10;;;31.00;37.00;;;;;;5057324;28;20950;-84
2022/06/12 11:20:51;;;;;;;2.70;1.30;;;31.00;35.40;;;;;;5047984;28;20453;-84
2022/06/12 11:23:41;;;;;;;2.00;1.30;;;31.50;34.30;;;;;;5034014;28;20803;-84
2022/06/12 11:26:19;;;;;;;3.27;1.30;;;31.30;34.30;;;;;;5049790;28;20474;-83
2022/06/12 11:29:07;;;;;;;3.30;1.50;;;31.00;33.90;;;;;;5055237;28;20464;-84
2022/06/12 11:32:09;;;;;;;4.03;1.43;;;30.80;33.70;;;;;;5067876;28;20499;-82
2022/06/12 11:34:42;;;;;;;2.93;1.30;;;30.60;34.20;;;;;;5068558;28;20504;-83
2022/06/12 11:37:31;;;;;;;5.10;1.60;;;30.10;34.90;;;;;;5050086;28;20463;-84
2022/06/12 11:40:16;;;;;;;2.40;1.40;;;29.90;35.50;;;;;;5058121;28;21019;-83
2022/06/12 11:43:03;;;;;;;3.40;1.40;;;29.60;36.70;;;;;;5054914;28;20482;-83
2022/06/12 11:46:15;;;;;;;2.67;1.50;;;29.90;36.70;;;;;;5028918;28;20510;-83
2022/06/12 11:48:45;;;;;;;3.30;1.33;;;30.00;36.20;;;;;;5052295;28;20449;-84
2022/06/12 11:51:38;;;;;;;2.50;1.23;;;31.50;35.10;;;;;;5053064;28;20468;-83
2022/06/12 11:54:27;;;;;;;2.87;1.40;;;31.10;34.40;;;;;;5048340;28;20567;-83
2022/06/12 11:57:09;;;;;;;2.83;1.30;;;30.40;36.30;;;;;;5066858;28;20962;-83
2022/06/12 11:59:55;;;;;;;1.90;1.20;;;30.10;37.20;;;;;;5049699;28;20495;-84
2022/06/12 12:02:36;;;;;;;3.00;1.60;;;30.00;35.80;;;;;;5046938;28;20511;-84
2022/06/12 12:05:28;;;;;;;3.90;1.60;;;29.90;36.10;;;;;;5053865;28;20460;-84
2022/06/12 12:08:20;;;;;;;3.17;1.60;;;30.10;36.50;;;;;;5057066;28;20527;-83
2022/06/12 12:11:13;;;;;;;3.03;1.37;;;30.00;36.20;;;;;;5071902;28;20469;-84
2022/06/12 12:13:50;;;;;;;1.90;1.50;;;29.90;37.60;;;;;;5060579;28;20440;-82
2022/06/12 12:16:47;;;;;;;5.03;1.73;;;30.10;38.10;;;;;;5061871;28;20436;-82
2022/06/12 12:19:59;;;;;;;5.00;1.90;;;30.10;38.20;;;;;;5071163;28;20448;-83
2022/06/12 12:22:36;;;;;;;3.17;1.77;;;29.70;38.90;;;;;;5065429;28;20474;-84
2022/06/12 12:25:22;;;;;;;4.37;1.60;;;29.70;38.30;;;;;;5061816;28;20436;-84
2022/06/12 12:27:53;;;;;;;4.40;1.80;;;29.80;38.60;;;;;;5048301;28;20480;-84
2022/06/12 12:30:30;;;;;;;3.30;1.30;;;30.40;38.30;;;;;;5059432;28;20472;-85
2022/06/12 12:33:02;;;;;;;5.43;1.90;;;31.60;36.10;;;;;;5064563;28;20498;-83
2022/06/12 12:41:11;;;;;;;5.37;1.97;;;30.20;37.10;;;;;;5067994;28;20440;-83
2022/06/12 12:43:55;;;;;;;3.50;1.40;;;30.00;37.80;;;;;;5065309;28;20473;-84
2022/06/12 12:46:26;;;;;;;4.17;1.60;;;29.90;36.70;;;;;;5065087;28;20448;-83
2022/06/12 12:48:55;;;;;;;4.30;1.70;;;29.50;36.60;;;;;;5064474;28;20453;-86
2022/06/12 12:51:33;;;;;;;3.67;1.57;;;29.30;37.20;;;;;;5065250;28;20471;-85
2022/06/12 12:54:15;;;;;;;4.63;1.30;;;29.10;37.20;;;;;;5068846;28;20456;-86
2022/06/12 12:57:04;;;;;;;3.93;1.80;;;29.10;36.90;;;;;;5068154;28;20465;-86
2022/06/12 12:59:42;;;;;;;4.80;1.50;;;29.00;37.50;;;;;;5066855;28;20448;-84
2022/06/12 13:02:28;;;;;;;3.43;1.37;;;29.00;36.90;;;;;;5068615;28;20516;-85
2022/06/12 13:04:58;;;;;;;3.17;1.73;;;28.80;36.20;;;;;;5060555;28;20449;-87
2022/06/12 13:07:56;;;;;;;2.17;1.40;;;28.70;35.80;;;;;;5062847;28;20461;-87
2022/06/12 13:10:46;;;;;;;6.87;2.43;;;28.80;36.30;;;;;;5041828;28;20969;-88
2022/06/12 13:13:50;;;;;;;4.33;1.80;;;29.20;36.70;;;;;;5052981;28;20458;-85
2022/06/12 13:16:29;;;;;;;2.53;1.63;;;28.90;36.80;;;;;;5066990;28;20467;-87
2022/06/12 13:19:45;;;;;;;3.70;1.83;;;29.10;37.30;;;;;;5067325;28;20448;-84
2022/06/12 13:22:33;;;;;;;5.00;1.60;;;29.00;38.10;;;;;;5014652;28;20483;-83
2022/06/12 13:25:09;;;;;;;3.17;1.47;;;29.00;39.30;;;;;;5070613;28;20452;-85
2022/06/12 13:27:54;;;;;;;2.80;1.40;;;28.80;39.70;;;;;;5055488;28;20445;-85
2022/06/12 13:30:38;;;;;;;5.80;2.00;;;28.60;39.40;;;;;;5070434;28;20502;-85
2022/06/12 13:33:10;;;;;;;4.53;1.90;;;28.90;40.00;;;;;;5068699;28;20500;-85
2022/06/12 13:35:45;;;;;;;4.30;1.87;;;29.20;38.70;;;;;;5065893;28;20447;-84
2022/06/12 13:38:24;;;;;;;8.63;2.60;;;29.00;38.40;;;;;;5069634;28;20444;-83
2022/06/12 13:41:46;;;;;;;7.30;2.00;;;28.70;38.50;;;;;;5068556;28;20498;-85
2022/06/12 13:44:39;;;;;;;3.10;1.27;;;28.40;38.80;;;;;;4989045;28;20485;-87
2022/06/12 13:47:18;;;;;;;3.20;1.30;;;28.50;38.80;;;;;;5061983;28;20485;-87
2022/06/12 13:50:21;;;;;;;2.60;1.50;;;28.70;38.00;;;;;;5065005;28;20468;-86
2022/06/12 13:53:23;;;;;;;6.43;2.13;;;28.70;38.40;;;;;;5068876;28;20455;-85
2022/06/12 13:55:54;;;;;;;8.77;2.10;;;28.60;40.10;;;;;;5033981;28;20465;-86